sensor_id;sensor_type;location;lat;lon;timestamp;temperature;humidity
14301;DHT22;7234;59.306;18.024;2023-05-02T15:48:15;11.40;99.90
14301;DHT22;7234;59.306;18.024;2023-05-02T15:50:43;11.40;99.90
14301;DHT22;7234;59.306;18.024;2023-05-02T15:53:12;11.40;99.90
14301;DHT22;7234;59.306;18.024;2023-05-02T15:55:43;11.40;99.90
14301;DHT22;7234;59.306;18.024;2023-05-02T15:58:16;11.40;99.90
14301;DHT22;7234;59.306;18.024;2023-05-02T16:00:47;11.40;99.90
14301;DHT22;7234;59.306;18.024;2023-05-02T16:06:42;11.30;99.90
14301;DHT22;7234;59.306;18.024;2023-05-02T16:09:10;11.20;99.90
14301;DHT22;7234;59.306;18.024;2023-05-02T16:11:40;11.00;99.90
14301;DHT22;7234;59.306;18.024;2023-05-02T16:14:12;11.10;99.90
14301;DHT22;7234;59.306;18.024;2023-05-02T16:16:41;11.10;99.90
14301;DHT22;7234;59.306;18.024;2023-05-02T16:19:10;11.10;99.90
14301;DHT22;7234;59.306;18.024;2023-05-02T16:21:46;11.20;99.90
14301;DHT22;7234;59.306;18.024;2023-05-02T16:24:42;11.10;99.90
14301;DHT22;7234;59.306;18.024;2023-05-02T16:27:10;11.00;99.90
14301;DHT22;7234;59.306;18.024;2023-05-02T16:29:38;11.10;99.90
14301;DHT22;7234;59.306;18.024;2023-05-02T16:32:06;11.10;99.90
14301;DHT22;7234;59.306;18.024;2023-05-02T16:34:35;11.10;99.90
14301;DHT22;7234;59.306;18.024;2023-05-02T16:37:05;11.10;99.90
14301;DHT22;7234;59.306;18.024;2023-05-02T16:39:36;11.10;99.90
14301;DHT22;7234;59.306;18.024;2023-05-02T16:42:07;11.10;99.90
14301;DHT22;7234;59.306;18.024;2023-05-02T16:44:34;11.10;99.90
14301;DHT22;7234;59.306;18.024;2023-05-02T16:47:04;11.10;99.90
14301;DHT22;7234;59.306;18.024;2023-05-02T16:49:33;10.90;99.90
14301;DHT22;7234;59.306;18.024;2023-05-02T16:52:01;10.70;99.90
14301;DHT22;7234;59.306;18.024;2023-05-02T16:54:33;10.70;99.90
14301;DHT22;7234;59.306;18.024;2023-05-02T16:57:01;10.70;99.90
14301;DHT22;7234;59.306;18.024;2023-05-02T16:59:44;10.70;99.90
14301;DHT22;7234;59.306;18.024;2023-05-02T17:02:17;10.60;99.90
14301;DHT22;7234;59.306;18.024;2023-05-02T17:04:47;10.60;99.90
14301;DHT22;7234;59.306;18.024;2023-05-02T17:07:15;10.60;99.90
14301;DHT22;7234;59.306;18.024;2023-05-02T17:09:44;10.60;99.90
14301;DHT22;7234;59.306;18.024;2023-05-02T17:12:11;10.60;99.90
14301;DHT22;7234;59.306;18.024;2023-05-02T17:19:51;10.60;99.90
14301;DHT22;7234;59.306;18.024;2023-05-02T17:22:20;10.70;99.90
14301;DHT22;7234;59.306;18.024;2023-05-02T17:37:51;10.50;99.90
14301;DHT22;7234;59.306;18.024;2023-05-02T17:40:21;10.40;99.90
14301;DHT22;7234;59.306;18.024;2023-05-02T17:42:49;10.40;99.90
14301;DHT22;7234;59.306;18.024;2023-05-02T17:45:22;10.40;99.90
14301;DHT22;7234;59.306;18.024;2023-05-02T17:47:49;10.40;99.90
14301;DHT22;7234;59.306;18.024;2023-05-02T17:50:19;10.20;99.90
14301;DHT22;7234;59.306;18.024;2023-05-02T17:52:52;10.20;99.90
14301;DHT22;7234;59.306;18.024;2023-05-02T17:55:19;10.10;99.90
14301;DHT22;7234;59.306;18.024;2023-05-02T17:57:48;10.10;99.90
14301;DHT22;7234;59.306;18.024;2023-05-02T18:00:19;10.00;99.90
14301;DHT22;7234;59.306;18.024;2023-05-02T18:02:49;10.10;99.90
14301;DHT22;7234;59.306;18.024;2023-05-02T18:05:16;10.10;99.90
14301;DHT22;7234;59.306;18.024;2023-05-02T18:07:45;10.00;99.90
14301;DHT22;7234;59.306;18.024;2023-05-02T18:10:17;9.90;99.90
14301;DHT22;7234;59.306;18.024;2023-05-02T18:12:44;9.90;99.90
14301;DHT22;7234;59.306;18.024;2023-05-02T18:15:14;9.90;99.90
14301;DHT22;7234;59.306;18.024;2023-05-02T18:17:42;9.90;99.90
14301;DHT22;7234;59.306;18.024;2023-05-02T18:20:10;9.90;99.90
14301;DHT22;7234;59.306;18.024;2023-05-02T18:22:41;9.80;99.90
14301;DHT22;7234;59.306;18.024;2023-05-02T18:27:39;9.70;99.90
14301;DHT22;7234;59.306;18.024;2023-05-02T18:30:21;9.70;99.90
14301;DHT22;7234;59.306;18.024;2023-05-02T18:32:51;9.60;99.90
14301;DHT22;7234;59.306;18.024;2023-05-02T18:35:23;9.60;99.90
14301;DHT22;7234;59.306;18.024;2023-05-02T18:37:52;9.60;99.90
14301;DHT22;7234;59.306;18.024;2023-05-02T18:40:21;9.40;99.90
14301;DHT22;7234;59.306;18.024;2023-05-02T18:51:04;9.30;99.90
14301;DHT22;7234;59.306;18.024;2023-05-02T18:53:33;9.30;99.90
14301;DHT22;7234;59.306;18.024;2023-05-02T18:56:01;9.20;99.90
14301;DHT22;7234;59.306;18.024;2023-05-02T18:58:31;9.10;99.90
14301;DHT22;7234;59.306;18.024;2023-05-02T19:00:59;9.10;99.90
14301;DHT22;7234;59.306;18.024;2023-05-02T19:03:28;9.10;99.90
14301;DHT22;7234;59.306;18.024;2023-05-02T19:05:58;9.00;99.90
14301;DHT22;7234;59.306;18.024;2023-05-02T19:08:28;9.00;99.90
14301;DHT22;7234;59.306;18.024;2023-05-02T19:10:56;9.00;99.90
14301;DHT22;7234;59.306;18.024;2023-05-02T19:13:23;9.00;99.90
14301;DHT22;7234;59.306;18.024;2023-05-02T19:15:53;8.90;99.90
14301;DHT22;7234;59.306;18.024;2023-05-02T19:18:21;8.90;99.90
14301;DHT22;7234;59.306;18.024;2023-05-02T19:20:49;8.90;99.90
14301;DHT22;7234;59.306;18.024;2023-05-02T19:23:22;8.90;99.90
14301;DHT22;7234;59.306;18.024;2023-05-02T19:25:54;8.80;99.90
14301;DHT22;7234;59.306;18.024;2023-05-02T19:28:28;8.90;99.90
14301;DHT22;7234;59.306;18.024;2023-05-02T19:30:58;8.80;99.90
14301;DHT22;7234;59.306;18.024;2023-05-02T19:33:31;8.80;99.90
14301;DHT22;7234;59.306;18.024;2023-05-02T19:36:00;8.70;99.90
14301;DHT22;7234;59.306;18.024;2023-05-02T19:38:31;8.70;99.90
14301;DHT22;7234;59.306;18.024;2023-05-02T19:41:01;8.80;99.90
14301;DHT22;7234;59.306;18.024;2023-05-02T19:43:30;8.80;99.90
14301;DHT22;7234;59.306;18.024;2023-05-02T19:46:08;8.70;99.90
14301;DHT22;7234;59.306;18.024;2023-05-02T19:48:48;8.80;99.90
14301;DHT22;7234;59.306;18.024;2023-05-02T19:51:18;8.80;99.90
14301;DHT22;7234;59.306;18.024;2023-05-02T19:53:52;8.80;99.90
14301;DHT22;7234;59.306;18.024;2023-05-02T19:56:24;8.70;99.90
14301;DHT22;7234;59.306;18.024;2023-05-02T19:58:53;8.70;99.90
14301;DHT22;7234;59.306;18.024;2023-05-02T20:01:27;8.70;99.90
14301;DHT22;7234;59.306;18.024;2023-05-02T20:04:02;8.70;99.90
14301;DHT22;7234;59.306;18.024;2023-05-02T20:06:31;8.70;99.90
14301;DHT22;7234;59.306;18.024;2023-05-02T20:09:03;8.70;99.90
14301;DHT22;7234;59.306;18.024;2023-05-02T20:11:34;8.80;99.90
14301;DHT22;7234;59.306;18.024;2023-05-02T20:14:03;8.80;99.90
14301;DHT22;7234;59.306;18.024;2023-05-02T20:16:32;8.80;99.90
14301;DHT22;7234;59.306;18.024;2023-05-02T20:19:01;8.70;99.90
14301;DHT22;7234;59.306;18.024;2023-05-02T20:21:29;8.70;99.90
14301;DHT22;7234;59.306;18.024;2023-05-02T20:24:07;8.80;99.90
14301;DHT22;7234;59.306;18.024;2023-05-02T20:26:36;8.70;99.90
14301;DHT22;7234;59.306;18.024;2023-05-02T20:29:06;8.70;99.90
14301;DHT22;7234;59.306;18.024;2023-05-02T20:31:37;8.70;99.90
14301;DHT22;7234;59.306;18.024;2023-05-02T20:34:05;8.70;99.90
14301;DHT22;7234;59.306;18.024;2023-05-02T20:36:32;8.70;99.90
14301;DHT22;7234;59.306;18.024;2023-05-02T20:39:04;8.70;99.90
14301;DHT22;7234;59.306;18.024;2023-05-02T20:41:33;8.60;99.90
